createdAt,value
2022-07-30T00:01:20.527Z,15.89
2022-07-30T00:03:49.001Z,15.88
2022-07-30T00:06:20.449Z,15.86
2022-07-30T00:08:48.952Z,15.84
2022-07-30T00:11:17.338Z,15.82
2022-07-30T00:13:45.688Z,15.79
2022-07-30T00:16:14.492Z,15.76
2022-07-30T00:18:43.081Z,15.74
2022-07-30T00:21:11.490Z,15.72
2022-07-30T00:23:51.076Z,15.70
2022-07-30T00:26:30.544Z,15.68
2022-07-30T00:28:58.938Z,15.64
2022-07-30T00:31:27.529Z,15.63
2022-07-30T00:33:56.018Z,15.62
2022-07-30T00:36:24.696Z,15.59
2022-07-30T00:38:53.396Z,15.57
2022-07-30T00:41:23.580Z,15.55
2022-07-30T00:43:52.567Z,15.53
2022-07-30T00:46:21.054Z,15.51
2022-07-30T00:48:49.598Z,15.50
2022-07-30T00:51:18.072Z,15.48
2022-07-30T00:53:46.485Z,15.45
2022-07-30T00:56:15.746Z,15.44
2022-07-30T00:58:45.544Z,15.44
2022-07-30T01:01:14.367Z,15.44
2022-07-30T01:03:42.865Z,15.45
2022-07-30T01:06:14.188Z,15.45
2022-07-30T01:08:43.449Z,15.45
2022-07-30T01:11:12.161Z,15.44
2022-07-30T01:13:45.095Z,15.41
2022-07-30T01:16:14.869Z,15.40
2022-07-30T01:19:06.323Z,15.38
2022-07-30T01:21:39.249Z,15.35
2022-07-30T01:24:31.702Z,15.30
2022-07-30T01:27:01.398Z,15.27
2022-07-30T01:29:32.806Z,15.25
2022-07-30T01:32:03.115Z,15.24
2022-07-30T01:34:34.423Z,15.20
2022-07-30T01:37:05.403Z,15.18
2022-07-30T01:39:34.197Z,15.16
2022-07-30T01:42:05.455Z,15.13
2022-07-30T01:44:34.996Z,15.11
2022-07-30T01:47:04.806Z,15.09
2022-07-30T01:49:34.768Z,15.07
2022-07-30T01:52:04.713Z,15.06
2022-07-30T01:54:34.064Z,15.04
2022-07-30T01:57:04.567Z,15.03
2022-07-30T01:59:35.600Z,15.01
2022-07-30T02:02:04.073Z,14.99
2022-07-30T02:04:34.514Z,14.98
2022-07-30T02:07:10.604Z,14.97
2022-07-30T02:09:51.817Z,14.95
2022-07-30T02:12:29.330Z,14.92
2022-07-30T02:15:17.820Z,14.91
2022-07-30T02:17:59.591Z,14.88
2022-07-30T02:20:29.936Z,14.86
2022-07-30T02:23:05.826Z,14.84
2022-07-30T02:25:38.739Z,14.82
2022-07-30T02:28:13.099Z,14.81
2022-07-30T02:30:56.695Z,14.80
2022-07-30T02:33:37.692Z,14.77
2022-07-30T02:36:19.529Z,14.75
2022-07-30T02:38:51.622Z,14.74
2022-07-30T02:41:23.693Z,14.71
2022-07-30T02:43:54.869Z,14.70
2022-07-30T02:46:25.755Z,14.71
2022-07-30T02:49:22.605Z,14.69
2022-07-30T02:51:52.129Z,14.67
2022-07-30T02:54:25.285Z,14.65
2022-07-30T02:56:57.392Z,14.64
2022-07-30T02:59:29.419Z,14.61
2022-07-30T03:01:59.729Z,14.60
2022-07-30T03:04:28.907Z,14.58
2022-07-30T03:06:59.914Z,14.57
2022-07-30T03:09:52.471Z,14.54
2022-07-30T03:12:20.743Z,14.52
2022-07-30T03:14:49.516Z,14.49
2022-07-30T03:17:19.905Z,14.47
2022-07-30T03:19:49.662Z,14.45
2022-07-30T03:22:20.293Z,14.43
2022-07-30T03:24:49.482Z,14.41
2022-07-30T03:27:18.847Z,14.39
2022-07-30T03:29:48.842Z,14.37
2022-07-30T03:32:17.396Z,14.35
2022-07-30T03:34:48.038Z,14.35
2022-07-30T03:37:17.066Z,14.37
2022-07-30T03:39:46.117Z,14.36
2022-07-30T03:42:16.011Z,14.33
2022-07-30T03:44:45.853Z,14.32
2022-07-30T03:47:16.557Z,14.31
2022-07-30T03:49:49.437Z,14.31
2022-07-30T03:52:20.242Z,14.32
2022-07-30T03:54:48.772Z,14.32
2022-07-30T03:57:20.701Z,14.32
2022-07-30T03:59:51.814Z,14.31
2022-07-30T04:02:22.511Z,14.31
2022-07-30T04:05:03.219Z,14.30
2022-07-30T04:07:31.608Z,14.32
2022-07-30T04:10:00.162Z,14.34
2022-07-30T04:13:07.788Z,14.37
2022-07-30T04:16:40.509Z,14.40
2022-07-30T04:18:42.854Z,14.41
2022-07-30T04:21:16.202Z,14.43
2022-07-30T04:24:04.445Z,14.48
2022-07-30T04:26:36.354Z,14.51
2022-07-30T04:29:08.386Z,14.57
2022-07-30T04:31:41.088Z,14.64
2022-07-30T04:34:52.915Z,14.77
2022-07-30T04:37:41.378Z,14.82
2022-07-30T04:40:10.353Z,14.87
2022-07-30T04:42:38.790Z,14.92
2022-07-30T04:45:11.799Z,15.01
2022-07-30T04:47:54.032Z,15.37
2022-07-30T04:50:46.959Z,16.03
2022-07-30T04:53:19.836Z,16.63
2022-07-30T04:55:55.315Z,17.23
2022-07-30T04:58:28.511Z,17.84
2022-07-30T05:00:59.097Z,18.43
2022-07-30T05:03:31.819Z,18.98
2022-07-30T05:06:01.254Z,19.48
2022-07-30T05:08:33.117Z,20.00
2022-07-30T05:11:05.790Z,20.51
2022-07-30T05:13:38.253Z,20.98
2022-07-30T05:16:10.611Z,21.39
2022-07-30T05:18:39.175Z,21.79
2022-07-30T05:21:08.097Z,22.18
2022-07-30T05:23:38.845Z,22.54
2022-07-30T05:26:20.090Z,22.93
2022-07-30T05:28:54.994Z,23.28
2022-07-30T05:31:31.229Z,23.60
2022-07-30T05:34:03.998Z,23.92
2022-07-30T05:36:45.118Z,24.15
2022-07-30T05:39:16.645Z,24.37
2022-07-30T05:41:55.089Z,24.32
2022-07-30T05:44:36.285Z,24.28
2022-07-30T05:47:04.789Z,24.32
2022-07-30T05:49:33.846Z,24.37
2022-07-30T05:52:08.878Z,24.47
2022-07-30T05:54:37.263Z,24.49
2022-07-30T05:57:05.801Z,24.45
2022-07-30T05:59:36.440Z,24.50
2022-07-30T06:02:06.763Z,24.46
2022-07-30T06:04:53.564Z,24.11
2022-07-30T06:07:22.943Z,23.75
2022-07-30T06:09:53.199Z,23.51
2022-07-30T06:12:22.186Z,23.25
2022-07-30T06:14:50.692Z,22.97
2022-07-30T06:17:25.994Z,22.75
2022-07-30T06:20:08.321Z,22.52
2022-07-30T06:22:49.432Z,22.37
2022-07-30T06:25:25.132Z,22.16
2022-07-30T06:27:53.528Z,21.92
2022-07-30T06:30:31.411Z,21.74
2022-07-30T06:33:00.978Z,21.69
2022-07-30T06:35:29.495Z,21.66
2022-07-30T06:38:00.618Z,21.64
2022-07-30T06:40:41.477Z,21.54
2022-07-30T06:43:19.188Z,21.52
2022-07-30T06:46:22.617Z,21.51
2022-07-30T06:48:53.841Z,21.49
2022-07-30T06:51:22.424Z,21.45
2022-07-30T06:53:50.710Z,21.41
2022-07-30T06:56:39.061Z,21.43
2022-07-30T06:59:09.354Z,21.45
2022-07-30T07:02:07.139Z,21.48
2022-07-30T07:04:46.906Z,21.48
2022-07-30T07:07:26.858Z,21.48
2022-07-30T07:10:05.172Z,21.52
2022-07-30T07:12:42.351Z,21.54
2022-07-30T07:15:10.862Z,21.51
2022-07-30T07:17:41.876Z,21.49
2022-07-30T07:20:28.977Z,21.47
2022-07-30T07:23:09.395Z,21.49
2022-07-30T07:25:41.619Z,21.50
2022-07-30T07:28:13.409Z,21.52
2022-07-30T07:30:45.557Z,21.51
2022-07-30T07:33:15.561Z,21.56
2022-07-30T07:35:49.368Z,21.63
2022-07-30T07:38:26.641Z,21.68
2022-07-30T07:40:56.513Z,21.73
2022-07-30T07:43:25.315Z,21.79
2022-07-30T07:45:56.993Z,21.82
2022-07-30T07:48:28.155Z,21.83
2022-07-30T07:51:04.059Z,21.84
2022-07-30T07:53:38.239Z,21.79
2022-07-30T07:56:08.611Z,21.82
2022-07-30T07:58:38.305Z,21.81
2022-07-30T08:01:14.129Z,21.82
2022-07-30T08:04:01.278Z,21.87
2022-07-30T08:06:52.193Z,21.85
2022-07-30T08:09:44.340Z,21.85
2022-07-30T08:12:28.101Z,21.94
2022-07-30T08:15:25.659Z,22.00
2022-07-30T08:18:26.093Z,22.02
2022-07-30T08:21:11.194Z,22.04
2022-07-30T08:23:42.676Z,22.09
2022-07-30T08:26:12.068Z,22.13
2022-07-30T08:28:40.627Z,22.18
2022-07-30T08:31:09.680Z,22.24
2022-07-30T08:33:38.178Z,22.26
2022-07-30T08:36:09.756Z,22.31
2022-07-30T08:38:39.989Z,22.35
2022-07-30T08:41:09.487Z,22.37
2022-07-30T08:43:38.101Z,22.39
2022-07-30T08:46:10.373Z,22.42
2022-07-30T08:51:19.883Z,22.43
2022-07-30T08:54:14.197Z,22.44
2022-07-30T08:56:44.797Z,22.50
2022-07-30T08:59:13.475Z,22.57
2022-07-30T09:01:41.923Z,22.64
2022-07-30T09:04:10.570Z,22.69
2022-07-30T09:06:40.976Z,22.74
2022-07-30T09:09:11.603Z,22.78
2022-07-30T09:11:42.564Z,22.79
2022-07-30T09:14:13.421Z,22.80
2022-07-30T09:16:43.779Z,22.84
2022-07-30T09:19:13.838Z,22.90
2022-07-30T09:21:42.972Z,22.94
2022-07-30T09:24:24.762Z,23.02
2022-07-30T09:27:22.325Z,23.09
2022-07-30T09:29:59.307Z,23.08
2022-07-30T09:32:56.662Z,23.14
2022-07-30T09:35:43.759Z,23.22
2022-07-30T09:38:13.047Z,23.37
2022-07-30T09:41:12.318Z,23.55
2022-07-30T09:43:54.274Z,23.57
2022-07-30T09:46:47.145Z,23.52
2022-07-30T09:49:29.207Z,23.48
2022-07-30T09:51:58.599Z,23.51
2022-07-30T09:54:51.548Z,23.60
2022-07-30T09:57:27.285Z,23.68
2022-07-30T10:00:23.480Z,23.68
2022-07-30T10:03:22.005Z,23.57
2022-07-30T10:06:35.703Z,23.46
2022-07-30T10:09:25.858Z,23.38
2022-07-30T10:12:03.990Z,23.31
2022-07-30T10:14:42.522Z,23.28
2022-07-30T10:17:18.121Z,23.27
2022-07-30T10:20:08.824Z,23.22
2022-07-30T10:22:58.241Z,23.35
2022-07-30T10:25:49.509Z,23.58
2022-07-30T10:28:43.542Z,23.85
2022-07-30T10:31:48.200Z,24.04
2022-07-30T10:34:02.199Z,24.21
2022-07-30T10:36:31.744Z,24.28
2022-07-30T10:39:02.017Z,24.33
2022-07-30T10:41:42.610Z,24.34
2022-07-30T10:44:43.665Z,24.23
2022-07-30T10:47:16.340Z,24.12
2022-07-30T10:50:15.778Z,24.05
2022-07-30T10:52:58.394Z,24.05
2022-07-30T10:55:38.862Z,24.02
2022-07-30T10:58:15.839Z,24.13
2022-07-30T11:00:54.575Z,24.28
2022-07-30T11:03:40.685Z,24.44
2022-07-30T11:06:16.069Z,24.62
2022-07-30T11:08:48.060Z,24.78
2022-07-30T11:11:59.060Z,24.80
2022-07-30T11:14:10.924Z,24.93
2022-07-30T11:16:41.352Z,24.95
2022-07-30T11:19:55.945Z,24.89
2022-07-30T11:22:38.489Z,24.80
2022-07-30T11:25:12.699Z,24.87
2022-07-30T11:27:45.707Z,24.84
2022-07-30T11:30:18.130Z,24.62
2022-07-30T11:32:49.764Z,24.52
2022-07-30T11:35:26.109Z,24.57
2022-07-30T11:38:15.696Z,24.62
2022-07-30T11:40:48.659Z,24.44
2022-07-30T11:43:35.766Z,24.37
2022-07-30T11:46:10.265Z,24.37
2022-07-30T11:48:41.780Z,24.20
2022-07-30T11:51:10.433Z,24.23
2022-07-30T11:53:39.238Z,24.31
2022-07-30T11:56:09.455Z,24.31
2022-07-30T11:58:44.792Z,24.28
2022-07-30T12:01:16.169Z,24.32
2022-07-30T12:03:45.941Z,24.34
2022-07-30T12:06:18.209Z,24.37
2022-07-30T12:08:49.375Z,24.41
2022-07-30T12:11:17.731Z,24.47
2022-07-30T12:13:56.223Z,24.48
2022-07-30T12:16:25.409Z,24.55
2022-07-30T12:18:54.447Z,24.54
2022-07-30T12:21:24.817Z,24.47
2022-07-30T12:23:54.638Z,24.33
2022-07-30T12:26:34.222Z,24.21
2022-07-30T12:29:10.105Z,24.06
2022-07-30T12:31:40.249Z,23.91
2022-07-30T12:34:23.138Z,23.78
2022-07-30T12:36:52.001Z,23.74
2022-07-30T12:39:23.967Z,23.72
2022-07-30T12:41:58.093Z,23.72
2022-07-30T12:44:41.767Z,23.80
2022-07-30T12:47:20.876Z,23.94
2022-07-30T12:49:53.144Z,24.02
2022-07-30T12:52:34.545Z,24.04
2022-07-30T12:55:11.330Z,23.96
2022-07-30T12:57:58.115Z,23.96
2022-07-30T13:00:28.080Z,23.89
2022-07-30T13:02:56.994Z,23.74
2022-07-30T13:05:45.159Z,23.56
2022-07-30T13:08:13.828Z,23.65
2022-07-30T13:11:01.497Z,23.85
2022-07-30T13:13:31.169Z,24.01
2022-07-30T13:16:05.115Z,24.10
2022-07-30T13:18:34.677Z,24.10
2022-07-30T13:21:05.284Z,24.11
2022-07-30T13:23:34.885Z,24.15
2022-07-30T13:26:03.554Z,24.25
2022-07-30T13:28:33.505Z,24.35
2022-07-30T13:31:02.365Z,24.47
2022-07-30T13:33:30.793Z,24.63
2022-07-30T13:36:00.022Z,24.72
2022-07-30T13:38:28.638Z,24.78
2022-07-30T13:41:02.155Z,24.79
2022-07-30T13:43:33.865Z,24.73
2022-07-30T13:46:03.558Z,24.58
2022-07-30T13:48:32.956Z,24.46
2022-07-30T13:51:02.614Z,24.42
2022-07-30T13:53:31.544Z,24.36
2022-07-30T13:56:03.613Z,24.37
2022-07-30T13:58:36.109Z,24.44
2022-07-30T14:01:07.184Z,24.42
2022-07-30T14:03:35.878Z,24.36
2022-07-30T14:06:11.027Z,24.28
2022-07-30T14:08:39.910Z,24.14
2022-07-30T14:11:08.422Z,24.03
2022-07-30T14:13:36.901Z,24.02
2022-07-30T14:16:22.654Z,23.96
2022-07-30T14:18:57.485Z,23.92
2022-07-30T14:21:25.905Z,23.87
2022-07-30T14:23:54.992Z,23.82
2022-07-30T14:26:23.478Z,23.81
2022-07-30T14:28:51.773Z,23.80
2022-07-30T14:31:20.240Z,23.82
2022-07-30T14:33:48.521Z,23.82
2022-07-30T14:36:33.092Z,23.88
2022-07-30T14:39:04.976Z,23.94
2022-07-30T14:41:34.861Z,23.97
2022-07-30T14:44:03.508Z,23.99
2022-07-30T14:46:32.258Z,23.91
2022-07-30T14:49:00.625Z,23.82
2022-07-30T14:51:33.906Z,23.68
2022-07-30T14:54:03.293Z,23.65
2022-07-30T14:56:34.627Z,23.66
2022-07-30T14:59:02.948Z,23.64
2022-07-30T15:01:31.792Z,23.67
2022-07-30T15:04:00.265Z,23.68
2022-07-30T15:06:29.128Z,23.62
2022-07-30T15:08:57.474Z,23.59
2022-07-30T15:11:25.865Z,23.52
2022-07-30T15:13:54.251Z,23.50
2022-07-30T15:16:23.117Z,23.47
2022-07-30T15:18:51.563Z,23.44
2022-07-30T15:21:19.969Z,23.40
2022-07-30T15:23:48.442Z,23.39
2022-07-30T15:26:17.560Z,23.34
2022-07-30T15:28:45.981Z,23.32
2022-07-30T15:31:14.338Z,23.29
2022-07-30T15:33:44.853Z,23.28
2022-07-30T15:36:13.355Z,23.25
2022-07-30T15:38:42.101Z,23.24
2022-07-30T15:41:13.644Z,23.20
2022-07-30T15:43:42.330Z,23.16
2022-07-30T15:46:10.714Z,23.10
2022-07-30T15:48:39.317Z,23.07
2022-07-30T15:51:08.404Z,23.02
2022-07-30T15:53:37.179Z,23.01
2022-07-30T15:56:05.984Z,23.04
2022-07-30T15:58:34.225Z,23.05
2022-07-30T16:01:05.333Z,23.04
2022-07-30T16:03:33.700Z,22.90
2022-07-30T16:06:01.945Z,22.83
2022-07-30T16:08:30.590Z,22.82
2022-07-30T16:10:58.946Z,22.80
2022-07-30T16:13:27.467Z,22.79
2022-07-30T16:15:55.755Z,22.76
2022-07-30T16:18:24.096Z,22.72
2022-07-30T16:20:52.437Z,22.69
2022-07-30T16:23:21.667Z,22.67
2022-07-30T16:25:50.299Z,22.64
2022-07-30T16:28:19.189Z,22.61
2022-07-30T16:30:50.649Z,22.52
2022-07-30T16:33:21.049Z,22.44
2022-07-30T16:35:51.381Z,22.42
2022-07-30T16:38:22.891Z,22.37
2022-07-30T16:40:51.270Z,22.32
2022-07-30T16:43:20.327Z,22.24
2022-07-30T16:45:49.173Z,22.14
2022-07-30T16:48:17.753Z,22.06
2022-07-30T16:50:46.103Z,21.97
2022-07-30T16:53:14.962Z,21.88
2022-07-30T16:55:44.763Z,21.84
2022-07-30T16:58:13.206Z,21.78
2022-07-30T17:00:42.033Z,21.73
2022-07-30T17:03:12.073Z,21.70
2022-07-30T17:05:48.715Z,21.65
2022-07-30T17:08:17.680Z,21.61
2022-07-30T17:10:46.649Z,21.57
2022-07-30T17:13:16.689Z,21.49
2022-07-30T17:15:46.691Z,21.43
2022-07-30T17:18:15.930Z,21.36
2022-07-30T17:20:45.085Z,21.31
2022-07-30T17:23:13.630Z,21.26
2022-07-30T17:25:42.055Z,21.23
2022-07-30T17:28:10.794Z,21.19
2022-07-30T17:30:39.043Z,21.15
2022-07-30T17:33:07.430Z,21.08
2022-07-30T17:35:35.756Z,21.06
2022-07-30T17:38:04.600Z,21.03
2022-07-30T17:40:32.991Z,21.02
2022-07-30T17:43:05.604Z,20.99
2022-07-30T17:45:35.799Z,20.96
2022-07-30T17:48:05.269Z,20.97
2022-07-30T17:50:34.750Z,20.95
2022-07-30T17:53:04.529Z,20.92
2022-07-30T17:55:35.327Z,20.85
2022-07-30T17:58:04.621Z,20.79
2022-07-30T18:00:34.835Z,20.76
2022-07-30T18:03:03.704Z,20.73
2022-07-30T18:05:32.170Z,20.72
2022-07-30T18:08:00.660Z,20.69
2022-07-30T18:10:31.814Z,20.68
2022-07-30T18:13:19.224Z,20.65
2022-07-30T18:15:48.751Z,20.66
2022-07-30T18:18:17.050Z,20.65
2022-07-30T18:20:48.544Z,20.64
2022-07-30T18:23:19.266Z,20.62
2022-07-30T18:25:51.422Z,20.60
2022-07-30T18:28:20.540Z,20.55
2022-07-30T18:30:48.970Z,20.51
2022-07-30T18:33:17.620Z,20.48
2022-07-30T18:35:45.975Z,20.46
2022-07-30T18:38:15.104Z,20.43
2022-07-30T18:40:44.922Z,20.42
2022-07-30T18:43:13.229Z,20.37
2022-07-30T18:45:41.522Z,20.35
2022-07-30T18:48:09.892Z,20.32
2022-07-30T18:50:38.257Z,20.29
2022-07-30T18:53:15.473Z,20.28
2022-07-30T18:55:45.074Z,20.24
2022-07-30T18:58:13.417Z,20.23
2022-07-30T19:00:43.994Z,20.21
2022-07-30T19:03:17.603Z,20.19
2022-07-30T19:05:49.431Z,20.17
2022-07-30T19:08:17.974Z,20.14
2022-07-30T19:10:46.351Z,20.13
2022-07-30T19:13:14.708Z,20.13
2022-07-30T19:15:43.030Z,20.12
2022-07-30T19:18:11.663Z,20.10
2022-07-30T19:20:39.979Z,20.09
2022-07-30T19:23:08.474Z,20.06
2022-07-30T19:25:37.046Z,20.03
2022-07-30T19:28:05.680Z,20.00
2022-07-30T19:30:34.656Z,19.95
2022-07-30T19:33:14.812Z,19.89
2022-07-30T19:35:44.353Z,19.84
2022-07-30T19:38:21.375Z,19.81
2022-07-30T19:40:50.534Z,19.75
2022-07-30T19:43:23.810Z,19.72
2022-07-30T19:45:52.647Z,19.67
2022-07-30T19:48:28.602Z,19.64
2022-07-30T19:51:00.772Z,19.61
2022-07-30T19:53:31.483Z,19.56
2022-07-30T19:56:08.380Z,19.54
2022-07-30T19:58:40.301Z,19.50
2022-07-30T20:01:11.149Z,19.46
2022-07-30T20:03:40.465Z,19.45
2022-07-30T20:06:14.821Z,19.43
2022-07-30T20:08:44.567Z,19.41
2022-07-30T20:11:20.821Z,19.39
2022-07-30T20:13:49.861Z,19.38
2022-07-30T20:16:18.219Z,19.35
2022-07-30T20:18:48.214Z,19.32
2022-07-30T20:21:21.093Z,19.30
2022-07-30T20:24:11.867Z,19.28
2022-07-30T20:26:40.422Z,19.27
2022-07-30T20:29:15.678Z,19.26
2022-07-30T20:31:49.643Z,19.25
2022-07-30T20:34:23.391Z,19.24
2022-07-30T20:36:52.220Z,19.24
2022-07-30T20:39:23.628Z,19.23
2022-07-30T20:42:07.697Z,19.22
2022-07-30T20:44:37.706Z,19.19
2022-07-30T20:47:08.412Z,19.17
2022-07-30T20:49:38.076Z,19.15
2022-07-30T20:52:09.790Z,19.13
2022-07-30T20:54:45.078Z,19.12
2022-07-30T20:57:15.907Z,19.09
2022-07-30T20:59:48.682Z,19.08
2022-07-30T21:02:17.133Z,19.07
2022-07-30T21:04:59.716Z,19.06
2022-07-30T21:07:36.661Z,19.05
2022-07-30T21:10:07.351Z,19.03
2022-07-30T21:12:36.603Z,19.02
2022-07-30T21:15:22.963Z,19.03
2022-07-30T21:17:52.278Z,19.03
2022-07-30T21:20:26.604Z,19.02
2022-07-30T21:23:02.213Z,19.02
2022-07-30T21:25:32.653Z,19.01
2022-07-30T21:28:02.941Z,18.99
2022-07-30T21:30:32.714Z,18.98
2022-07-30T21:33:01.402Z,18.97
2022-07-30T21:35:32.097Z,18.96
2022-07-30T21:38:00.753Z,18.93
2022-07-30T21:40:29.908Z,18.93
2022-07-30T21:42:58.212Z,18.88
2022-07-30T21:45:26.977Z,18.86
2022-07-30T21:48:07.570Z,18.84
2022-07-30T21:50:38.059Z,18.83
2022-07-30T21:53:06.217Z,18.82
2022-07-30T21:55:52.453Z,18.82
2022-07-30T21:58:25.724Z,18.81
2022-07-30T22:00:55.563Z,18.81
2022-07-30T22:04:02.147Z,18.81
2022-07-30T22:06:12.889Z,18.80
2022-07-30T22:08:41.397Z,18.80
2022-07-30T22:11:18.955Z,18.82
2022-07-30T22:13:53.678Z,18.83
2022-07-30T22:16:22.699Z,18.83
2022-07-30T22:18:51.673Z,18.83
2022-07-30T22:21:20.607Z,18.81
2022-07-30T22:23:54.930Z,18.80
2022-07-30T22:26:26.900Z,18.81
2022-07-30T22:28:55.455Z,18.80
2022-07-30T22:31:23.782Z,18.81
2022-07-30T22:33:59.376Z,18.78
2022-07-30T22:36:29.001Z,18.79
2022-07-30T22:38:58.529Z,18.77
2022-07-30T22:41:45.573Z,18.76
2022-07-30T22:44:13.909Z,18.76
2022-07-30T22:46:43.727Z,18.75
2022-07-30T22:49:23.609Z,18.76
2022-07-30T22:52:01.688Z,18.76
2022-07-30T22:54:37.555Z,18.73
2022-07-30T22:57:05.915Z,18.72
2022-07-30T22:59:58.103Z,18.72
2022-07-30T23:02:22.659Z,18.70
2022-07-30T23:04:51.759Z,18.70
2022-07-30T23:07:20.027Z,18.69
2022-07-30T23:09:51.978Z,18.68
2022-07-30T23:12:20.577Z,18.67
2022-07-30T23:14:48.930Z,18.66
2022-07-30T23:17:17.412Z,18.66
2022-07-30T23:19:45.987Z,18.64
2022-07-30T23:22:14.640Z,18.63
2022-07-30T23:24:43.054Z,18.61
2022-07-30T23:27:11.469Z,18.60
2022-07-30T23:29:39.805Z,18.59
2022-07-30T23:32:08.049Z,18.58
2022-07-30T23:34:36.372Z,18.56
2022-07-30T23:37:05.929Z,18.56
2022-07-30T23:39:34.521Z,18.56
2022-07-30T23:42:02.857Z,18.54
2022-07-30T23:44:34.326Z,18.54
2022-07-30T23:47:05.690Z,18.52
2022-07-30T23:49:34.199Z,18.51
2022-07-30T23:52:03.055Z,18.51
2022-07-30T23:54:31.816Z,18.48
2022-07-30T23:57:00.596Z,18.48
2022-07-30T23:59:36.906Z,18.47
